sensor_id;sensor_type;location;lat;lon;timestamp;pressure;altitude;pressure_sealevel;temperature;humidity
65227;BME280;51805;49.012;12.104;2022-11-20T00:00:53;97298.44;;;19.56;62.78
65227;BME280;51805;49.012;12.104;2022-11-20T00:03:18;97284.19;;;19.50;62.50
65227;BME280;51805;49.012;12.104;2022-11-20T00:05:44;97285.81;;;19.51;62.53
65227;BME280;51805;49.012;12.104;2022-11-20T00:08:10;97277.72;;;19.46;62.62
65227;BME280;51805;49.012;12.104;2022-11-20T00:10:41;97290.38;;;19.56;62.53
65227;BME280;51805;49.012;12.104;2022-11-20T00:13:07;97292.28;;;19.55;62.61
65227;BME280;51805;49.012;12.104;2022-11-20T00:15:32;97287.94;;;19.54;62.54
65227;BME280;51805;49.012;12.104;2022-11-20T00:17:58;97276.94;;;19.46;62.47
65227;BME280;51805;49.012;12.104;2022-11-20T00:20:23;97284.75;;;19.47;62.76
65227;BME280;51805;49.012;12.104;2022-11-20T00:22:49;97298.22;;;19.52;62.53
65227;BME280;51805;49.012;12.104;2022-11-20T00:25:14;97293.34;;;19.49;62.64
65227;BME280;51805;49.012;12.104;2022-11-20T00:27:39;97296.03;;;19.54;62.47
65227;BME280;51805;49.012;12.104;2022-11-20T00:30:05;97302.50;;;19.53;62.53
65227;BME280;51805;49.012;12.104;2022-11-20T00:32:30;97289.03;;;19.53;62.53
65227;BME280;51805;49.012;12.104;2022-11-20T00:34:56;97289.59;;;19.50;62.45
65227;BME280;51805;49.012;12.104;2022-11-20T00:37:21;97289.31;;;19.52;62.39
65227;BME280;51805;49.012;12.104;2022-11-20T00:39:46;97290.38;;;19.51;62.41
65227;BME280;51805;49.012;12.104;2022-11-20T00:42:12;97292.56;;;19.49;62.23
65227;BME280;51805;49.012;12.104;2022-11-20T00:44:37;97287.44;;;19.47;62.48
65227;BME280;51805;49.012;12.104;2022-11-20T00:47:02;97293.13;;;19.46;62.43
65227;BME280;51805;49.012;12.104;2022-11-20T00:49:28;97294.97;;;19.50;62.35
65227;BME280;51805;49.012;12.104;2022-11-20T00:51:53;97293.34;;;19.49;62.54
65227;BME280;51805;49.012;12.104;2022-11-20T00:54:18;97299.28;;;19.46;62.46
65227;BME280;51805;49.012;12.104;2022-11-20T00:56:43;97302.78;;;19.52;62.44
65227;BME280;51805;49.012;12.104;2022-11-20T00:59:09;97301.16;;;19.51;62.52
65227;BME280;51805;49.012;12.104;2022-11-20T01:01:35;97296.31;;;19.48;62.31
65227;BME280;51805;49.012;12.104;2022-11-20T01:04:01;97290.69;;;19.44;62.40
65227;BME280;51805;49.012;12.104;2022-11-20T01:08:59;97297.69;;;19.50;62.33
65227;BME280;51805;49.012;12.104;2022-11-20T01:11:30;97301.44;;;19.49;62.44
65227;BME280;51805;49.012;12.104;2022-11-20T01:13:57;97301.97;;;19.51;62.27
65227;BME280;51805;49.012;12.104;2022-11-20T01:16:24;97300.38;;;19.50;62.30
65227;BME280;51805;49.012;12.104;2022-11-20T01:18:51;97307.91;;;19.48;62.38
65227;BME280;51805;49.012;12.104;2022-11-20T01:21:19;97308.47;;;19.50;62.30
65227;BME280;51805;49.012;12.104;2022-11-20T01:23:46;97312.22;;;19.49;62.35
65227;BME280;51805;49.012;12.104;2022-11-20T01:26:14;97317.31;;;19.51;62.21
65227;BME280;51805;49.012;12.104;2022-11-20T01:28:40;97318.41;;;19.50;62.14
65227;BME280;51805;49.012;12.104;2022-11-20T01:31:19;97318.69;;;19.48;62.15
65227;BME280;51805;49.012;12.104;2022-11-20T01:33:46;97307.91;;;19.48;62.18
65227;BME280;51805;49.012;12.104;2022-11-20T01:36:12;97295.00;;;19.45;62.04
65227;BME280;51805;49.012;12.104;2022-11-20T01:38:39;97300.41;;;19.40;62.29
65227;BME280;51805;49.012;12.104;2022-11-20T01:41:04;97307.94;;;19.43;62.28
65227;BME280;51805;49.012;12.104;2022-11-20T01:43:30;97317.38;;;19.46;62.21
65227;BME280;51805;49.012;12.104;2022-11-20T01:46:05;97320.84;;;19.46;62.21
65227;BME280;51805;49.012;12.104;2022-11-20T01:51:00;97320.06;;;19.46;62.18
65227;BME280;51805;49.012;12.104;2022-11-20T01:53:32;97313.59;;;19.47;62.27
65227;BME280;51805;49.012;12.104;2022-11-20T01:56:01;97312.25;;;19.44;62.10
65227;BME280;51805;49.012;12.104;2022-11-20T01:58:31;97317.66;;;19.44;62.16
65227;BME280;51805;49.012;12.104;2022-11-20T02:00:57;97300.16;;;19.37;62.50
65227;BME280;51805;49.012;12.104;2022-11-20T02:03:23;97307.41;;;19.41;62.20
65227;BME280;51805;49.012;12.104;2022-11-20T02:08:33;97287.75;;;19.36;62.04
65227;BME280;51805;49.012;12.104;2022-11-20T02:10:58;97306.88;;;19.44;62.18
65227;BME280;51805;49.012;12.104;2022-11-20T02:13:24;97295.56;;;19.37;61.96
65227;BME280;51805;49.012;12.104;2022-11-20T02:15:49;97305.78;;;19.40;62.19
65227;BME280;51805;49.012;12.104;2022-11-20T02:18:17;97305.50;;;19.42;62.18
65227;BME280;51805;49.012;12.104;2022-11-20T02:20:45;97300.41;;;19.40;62.13
65227;BME280;51805;49.012;12.104;2022-11-20T02:23:16;97298.25;;;19.42;62.03
65227;BME280;51805;49.012;12.104;2022-11-20T02:25:47;97296.91;;;19.40;62.06
65227;BME280;51805;49.012;12.104;2022-11-20T02:28:14;97288.84;;;19.30;62.11
65227;BME280;51805;49.012;12.104;2022-11-20T02:30:40;97303.38;;;19.39;62.37
65227;BME280;51805;49.012;12.104;2022-11-20T02:33:05;97288.03;;;19.34;62.09
65227;BME280;51805;49.012;12.104;2022-11-20T02:37:58;97300.41;;;19.40;62.18
65227;BME280;51805;49.012;12.104;2022-11-20T02:40:24;97286.41;;;19.33;62.06
65227;BME280;51805;49.012;12.104;2022-11-20T02:42:56;97285.88;;;19.36;62.01
65227;BME280;51805;49.012;12.104;2022-11-20T02:45:22;97289.88;;;19.39;62.01
65227;BME280;51805;49.012;12.104;2022-11-20T02:47:48;97286.41;;;19.38;62.04
65227;BME280;51805;49.012;12.104;2022-11-20T02:50:14;97281.56;;;19.35;62.02
65227;BME280;51805;49.012;12.104;2022-11-20T02:52:39;97283.19;;;19.36;61.89
65227;BME280;51805;49.012;12.104;2022-11-20T02:55:05;97289.88;;;19.39;62.09
65227;BME280;51805;49.012;12.104;2022-11-20T02:57:30;97289.13;;;19.33;62.21
65227;BME280;51805;49.012;12.104;2022-11-20T02:59:56;97285.59;;;19.38;62.38
65227;BME280;51805;49.012;12.104;2022-11-20T03:02:21;97283.44;;;19.35;61.91
65227;BME280;51805;49.012;12.104;2022-11-20T03:04:46;97279.44;;;19.32;61.95
65227;BME280;51805;49.012;12.104;2022-11-20T03:07:11;97271.34;;;19.27;61.98
65227;BME280;51805;49.012;12.104;2022-11-20T03:09:37;97278.34;;;19.28;61.97
65227;BME280;51805;49.012;12.104;2022-11-20T03:12:02;97272.94;;;19.33;62.00
65227;BME280;51805;49.012;12.104;2022-11-20T03:14:28;97274.28;;;19.36;61.96
65227;BME280;51805;49.012;12.104;2022-11-20T03:16:53;97274.84;;;19.33;62.02
65227;BME280;51805;49.012;12.104;2022-11-20T03:19:18;97271.34;;;19.32;61.96
65227;BME280;51805;49.012;12.104;2022-11-20T03:21:43;97277.53;;;19.33;61.92
65227;BME280;51805;49.012;12.104;2022-11-20T03:24:09;97281.56;;;19.35;61.87
65227;BME280;51805;49.012;12.104;2022-11-20T03:26:34;97259.19;;;19.25;61.79
65227;BME280;51805;49.012;12.104;2022-11-20T03:29:01;97278.59;;;19.37;61.87
65227;BME280;51805;49.012;12.104;2022-11-20T03:31:29;97281.56;;;19.35;61.86
65227;BME280;51805;49.012;12.104;2022-11-20T03:33:56;97266.22;;;19.26;61.82
65227;BME280;51805;49.012;12.104;2022-11-20T03:36:22;97271.09;;;19.29;61.66
65227;BME280;51805;49.012;12.104;2022-11-20T03:38:48;97275.91;;;19.32;62.00
65227;BME280;51805;49.012;12.104;2022-11-20T03:41:18;97289.94;;;19.34;61.84
65227;BME280;51805;49.012;12.104;2022-11-20T03:43:53;97281.03;;;19.33;61.92
65227;BME280;51805;49.012;12.104;2022-11-20T03:46:19;97275.09;;;19.26;61.81
65227;BME280;51805;49.012;12.104;2022-11-20T03:48:45;97234.78;;;19.01;61.75
65227;BME280;51805;49.012;12.104;2022-11-20T03:51:18;97289.13;;;19.33;61.90
65227;BME280;51805;49.012;12.104;2022-11-20T03:53:45;97292.91;;;19.32;61.80
65227;BME280;51805;49.012;12.104;2022-11-20T03:56:11;97266.22;;;19.21;61.80
65227;BME280;51805;49.012;12.104;2022-11-20T03:58:40;97281.31;;;19.32;61.81
65227;BME280;51805;49.012;12.104;2022-11-20T04:01:10;97285.06;;;19.31;61.90
65227;BME280;51805;49.012;12.104;2022-11-20T04:03:36;97280.75;;;19.25;61.76
65227;BME280;51805;49.012;12.104;2022-11-20T04:06:13;97257.09;;;19.07;61.74
65227;BME280;51805;49.012;12.104;2022-11-20T04:08:39;97277.78;;;19.26;61.68
65227;BME280;51805;49.012;12.104;2022-11-20T04:11:18;97270.00;;;19.20;61.76
65227;BME280;51805;49.012;12.104;2022-11-20T04:13:47;97271.88;;;19.24;61.58
65227;BME280;51805;49.012;12.104;2022-11-20T04:16:12;97269.19;;;19.24;61.74
65227;BME280;51805;49.012;12.104;2022-11-20T04:18:38;97289.66;;;19.30;61.70
65227;BME280;51805;49.012;12.104;2022-11-20T04:21:04;97286.16;;;19.30;61.65
65227;BME280;51805;49.012;12.104;2022-11-20T04:23:30;97270.53;;;19.22;61.65
65227;BME280;51805;49.012;12.104;2022-11-20T04:26:01;97277.25;;;19.29;61.70
65227;BME280;51805;49.012;12.104;2022-11-20T04:28:26;97271.88;;;19.24;61.71
65227;BME280;51805;49.012;12.104;2022-11-20T04:30:52;97242.03;;;19.11;61.50
65227;BME280;51805;49.012;12.104;2022-11-20T04:33:17;97281.03;;;19.28;61.63
65227;BME280;51805;49.012;12.104;2022-11-20T04:35:43;97260.56;;;19.22;61.61
65227;BME280;51805;49.012;12.104;2022-11-20T04:38:10;97252.50;;;19.17;61.58
65227;BME280;51805;49.012;12.104;2022-11-20T04:40:36;97253.59;;;19.16;61.63
65227;BME280;51805;49.012;12.104;2022-11-20T04:43:01;97251.94;;;19.20;61.62
65227;BME280;51805;49.012;12.104;2022-11-20T04:45:26;97254.63;;;19.20;61.56
65227;BME280;51805;49.012;12.104;2022-11-20T04:47:52;97277.78;;;19.26;61.56
65227;BME280;51805;49.012;12.104;2022-11-20T04:50:17;97255.22;;;19.12;61.65
65227;BME280;51805;49.012;12.104;2022-11-20T04:52:43;97270.78;;;19.25;61.51
65227;BME280;51805;49.012;12.104;2022-11-20T04:55:08;97260.56;;;19.22;61.51
65227;BME280;51805;49.012;12.104;2022-11-20T04:57:33;97266.22;;;19.26;61.56
65227;BME280;51805;49.012;12.104;2022-11-20T04:59:58;97243.09;;;19.10;61.58
65227;BME280;51805;49.012;12.104;2022-11-20T05:02:24;97244.44;;;19.12;61.42
65227;BME280;51805;49.012;12.104;2022-11-20T05:04:49;97236.66;;;19.11;61.52
65227;BME280;51805;49.012;12.104;2022-11-20T05:07:14;97250.06;;;19.16;61.40
65227;BME280;51805;49.012;12.104;2022-11-20T05:09:40;97256.28;;;19.16;61.28
65227;BME280;51805;49.012;12.104;2022-11-20T05:12:07;97249.53;;;19.19;61.41
65227;BME280;51805;49.012;12.104;2022-11-20T05:14:32;97204.66;;;18.84;61.47
65227;BME280;51805;49.012;12.104;2022-11-20T05:16:58;97253.56;;;19.21;61.46
65227;BME280;51805;49.012;12.104;2022-11-20T05:19:23;97220.22;;;18.97;61.51
65227;BME280;51805;49.012;12.104;2022-11-20T05:21:48;97239.59;;;19.09;61.49
65227;BME280;51805;49.012;12.104;2022-11-20T05:24:13;97255.72;;;19.19;61.57
65227;BME280;51805;49.012;12.104;2022-11-20T05:26:39;97247.66;;;19.14;61.56
65227;BME280;51805;49.012;12.104;2022-11-20T05:29:04;97236.09;;;19.09;61.60
65227;BME280;51805;49.012;12.104;2022-11-20T05:31:29;97260.03;;;19.20;61.58
65227;BME280;51805;49.012;12.104;2022-11-20T05:33:56;97264.84;;;19.23;61.59
65227;BME280;51805;49.012;12.104;2022-11-20T05:36:22;97256.78;;;19.23;61.55
65227;BME280;51805;49.012;12.104;2022-11-20T05:38:47;97250.63;;;19.18;61.52
65227;BME280;51805;49.012;12.104;2022-11-20T05:41:17;97247.66;;;19.14;61.53
65227;BME280;51805;49.012;12.104;2022-11-20T05:43:45;97260.84;;;19.21;61.59
65227;BME280;51805;49.012;12.104;2022-11-20T05:46:12;97256.25;;;19.21;61.62
65227;BME280;51805;49.012;12.104;2022-11-20T05:48:39;97265.69;;;19.24;61.52
65227;BME280;51805;49.012;12.104;2022-11-20T05:51:06;97255.72;;;19.19;61.49
65227;BME280;51805;49.012;12.104;2022-11-20T05:53:33;97260.28;;;19.24;61.52
65227;BME280;51805;49.012;12.104;2022-11-20T05:56:04;97264.59;;;19.25;61.49
65227;BME280;51805;49.012;12.104;2022-11-20T05:58:31;97260.28;;;19.24;61.56
65227;BME280;51805;49.012;12.104;2022-11-20T06:03:38;97256.00;;;19.23;61.58
65227;BME280;51805;49.012;12.104;2022-11-20T06:06:05;97224.53;;;19.03;61.58
65227;BME280;51805;49.012;12.104;2022-11-20T06:08:31;97270.78;;;19.25;61.45
65227;BME280;51805;49.012;12.104;2022-11-20T06:10:56;97237.97;;;19.03;61.52
65227;BME280;51805;49.012;12.104;2022-11-20T06:13:21;97167.59;;;18.56;61.61
65227;BME280;51805;49.012;12.104;2022-11-20T06:15:51;97253.59;;;19.11;61.32
65227;BME280;51805;49.012;12.104;2022-11-20T06:18:16;97244.44;;;19.12;61.59
65227;BME280;51805;49.012;12.104;2022-11-20T06:20:42;97201.44;;;18.82;61.48
65227;BME280;51805;49.012;12.104;2022-11-20T06:23:07;97250.63;;;19.18;61.82
65227;BME280;51805;49.012;12.104;2022-11-20T06:25:32;97249.78;;;19.22;61.49
65227;BME280;51805;49.012;12.104;2022-11-20T06:27:58;97236.88;;;19.14;61.48
65227;BME280;51805;49.012;12.104;2022-11-20T06:30:23;97258.69;;;19.23;61.48
65227;BME280;51805;49.012;12.104;2022-11-20T06:32:48;97242.00;;;19.16;61.53
65227;BME280;51805;49.012;12.104;2022-11-20T06:35:13;97250.34;;;19.19;61.39
65227;BME280;51805;49.012;12.104;2022-11-20T06:37:39;97224.53;;;19.03;61.27
65227;BME280;51805;49.012;12.104;2022-11-20T06:40:05;97249.78;;;19.17;61.34
65227;BME280;51805;49.012;12.104;2022-11-20T06:42:30;97228.28;;;19.07;61.48
65227;BME280;51805;49.012;12.104;2022-11-20T06:44:55;97239.59;;;19.09;61.49
65227;BME280;51805;49.012;12.104;2022-11-20T06:47:21;97234.19;;;19.09;61.30
65227;BME280;51805;49.012;12.104;2022-11-20T06:49:46;97251.94;;;19.20;61.42
65227;BME280;51805;49.012;12.104;2022-11-20T06:52:11;97236.88;;;19.09;61.42
65227;BME280;51805;49.012;12.104;2022-11-20T06:54:36;97264.34;;;19.21;61.14
65227;BME280;51805;49.012;12.104;2022-11-20T06:57:02;97262.16;;;19.23;61.38
65227;BME280;51805;49.012;12.104;2022-11-20T06:59:27;97260.84;;;19.16;61.51
65227;BME280;51805;49.012;12.104;2022-11-20T07:01:52;97258.16;;;19.21;61.46
65227;BME280;51805;49.012;12.104;2022-11-20T07:04:17;97274.56;;;19.29;61.50
65227;BME280;51805;49.012;12.104;2022-11-20T07:06:43;97258.41;;;19.19;61.48
65227;BME280;51805;49.012;12.104;2022-11-20T07:09:08;97246.31;;;19.12;61.41
65227;BME280;51805;49.012;12.104;2022-11-20T07:11:33;97259.75;;;19.22;61.41
65227;BME280;51805;49.012;12.104;2022-11-20T07:13:59;97257.31;;;19.20;61.21
65227;BME280;51805;49.012;12.104;2022-11-20T07:16:24;97234.19;;;19.09;61.25
65227;BME280;51805;49.012;12.104;2022-11-20T07:18:49;97256.00;;;19.18;61.41
65227;BME280;51805;49.012;12.104;2022-11-20T07:21:14;97264.06;;;19.23;61.52
65227;BME280;51805;49.012;12.104;2022-11-20T07:23:40;97260.00;;;19.25;61.49
65227;BME280;51805;49.012;12.104;2022-11-20T07:26:06;97266.75;;;19.33;61.37
65227;BME280;51805;49.012;12.104;2022-11-20T07:28:32;97256.81;;;19.18;61.21
65227;BME280;51805;49.012;12.104;2022-11-20T07:30:58;97254.09;;;19.23;61.34
65227;BME280;51805;49.012;12.104;2022-11-20T07:33:23;97234.47;;;19.13;61.27
65227;BME280;51805;49.012;12.104;2022-11-20T07:35:48;97239.28;;;19.16;61.26
65227;BME280;51805;49.012;12.104;2022-11-20T07:38:14;97227.47;;;19.12;61.25
65227;BME280;51805;49.012;12.104;2022-11-20T07:40:39;97250.31;;;19.24;61.13
65227;BME280;51805;49.012;12.104;2022-11-20T07:43:04;97258.41;;;19.24;61.13
65227;BME280;51805;49.012;12.104;2022-11-20T07:45:29;97266.75;;;19.33;61.07
65227;BME280;51805;49.012;12.104;2022-11-20T07:47:55;97253.28;;;19.28;61.15
65227;BME280;51805;49.012;12.104;2022-11-20T07:50:20;97267.00;;;19.36;60.94
65227;BME280;51805;49.012;12.104;2022-11-20T07:52:46;97271.84;;;19.39;61.17
65227;BME280;51805;49.012;12.104;2022-11-20T07:55:11;97271.03;;;19.39;61.09
65227;BME280;51805;49.012;12.104;2022-11-20T07:57:37;97265.41;;;19.35;61.18
65227;BME280;51805;49.012;12.104;2022-11-20T08:00:04;97272.13;;;19.33;61.12
65227;BME280;51805;49.012;12.104;2022-11-20T08:02:30;97278.88;;;19.35;60.88
65227;BME280;51805;49.012;12.104;2022-11-20T08:04:55;97266.75;;;19.33;60.86
65227;BME280;51805;49.012;12.104;2022-11-20T08:07:20;97255.69;;;19.29;61.04
65227;BME280;51805;49.012;12.104;2022-11-20T08:09:45;97261.91;;;19.30;61.02
65227;BME280;51805;49.012;12.104;2022-11-20T08:12:20;97271.56;;;19.41;61.07
65227;BME280;51805;49.012;12.104;2022-11-20T08:14:46;97271.28;;;19.42;61.03
65227;BME280;51805;49.012;12.104;2022-11-20T08:17:11;97276.69;;;19.42;60.96
65227;BME280;51805;49.012;12.104;2022-11-20T08:19:37;97247.13;;;19.27;61.02
65227;BME280;51805;49.012;12.104;2022-11-20T08:22:02;97264.25;;;19.46;61.04
65227;BME280;51805;49.012;12.104;2022-11-20T08:24:27;97205.94;;;19.02;60.97
65227;BME280;51805;49.012;12.104;2022-11-20T08:26:53;97262.66;;;19.40;60.71
65227;BME280;51805;49.012;12.104;2022-11-20T08:29:18;97262.13;;;19.43;60.91
65227;BME280;51805;49.012;12.104;2022-11-20T08:31:43;97256.25;;;19.36;60.94
65227;BME280;51805;49.012;12.104;2022-11-20T08:34:09;97242.78;;;19.31;60.92
65227;BME280;51805;49.012;12.104;2022-11-20T08:36:34;97243.06;;;19.30;60.92
65227;BME280;51805;49.012;12.104;2022-11-20T08:39:00;97272.13;;;19.43;60.89
65227;BME280;51805;49.012;12.104;2022-11-20T08:41:25;97257.31;;;19.35;60.91
65227;BME280;51805;49.012;12.104;2022-11-20T08:46:20;97271.28;;;19.42;61.00
65227;BME280;51805;49.012;12.104;2022-11-20T08:48:46;97279.38;;;19.47;60.70
65227;BME280;51805;49.012;12.104;2022-11-20T08:51:12;97289.59;;;19.50;60.90
65227;BME280;51805;49.012;12.104;2022-11-20T08:53:38;97268.59;;;19.47;60.93
65227;BME280;51805;49.012;12.104;2022-11-20T08:56:04;97271.28;;;19.42;60.83
65227;BME280;51805;49.012;12.104;2022-11-20T08:58:29;97216.16;;;19.10;60.53
65227;BME280;51805;49.012;12.104;2022-11-20T09:00:54;97263.75;;;19.39;60.87
65227;BME280;51805;49.012;12.104;2022-11-20T09:03:20;97276.13;;;19.45;60.89
65227;BME280;51805;49.012;12.104;2022-11-20T09:05:45;97275.03;;;19.51;60.67
65227;BME280;51805;49.012;12.104;2022-11-20T09:08:11;97282.84;;;19.53;60.76
65227;BME280;51805;49.012;12.104;2022-11-20T09:10:36;97261.56;;;19.46;60.93
65227;BME280;51805;49.012;12.104;2022-11-20T09:13:01;97268.31;;;19.54;60.78
65227;BME280;51805;49.012;12.104;2022-11-20T09:15:27;97255.66;;;19.44;60.79
65227;BME280;51805;49.012;12.104;2022-11-20T09:17:58;97252.16;;;19.39;60.87
65227;BME280;51805;49.012;12.104;2022-11-20T09:20:23;97258.31;;;19.49;60.78
65227;BME280;51805;49.012;12.104;2022-11-20T09:22:49;97259.41;;;19.48;60.68
65227;BME280;51805;49.012;12.104;2022-11-20T09:25:14;97281.22;;;19.57;60.82
65227;BME280;51805;49.012;12.104;2022-11-20T09:27:40;97265.31;;;19.55;60.74
65227;BME280;51805;49.012;12.104;2022-11-20T09:30:10;97259.38;;;19.58;60.84
65227;BME280;51805;49.012;12.104;2022-11-20T09:32:35;97262.06;;;19.58;60.73
65227;BME280;51805;49.012;12.104;2022-11-20T09:35:01;97263.69;;;19.59;60.82
65227;BME280;51805;49.012;12.104;2022-11-20T09:37:26;97264.78;;;19.58;60.63
65227;BME280;51805;49.012;12.104;2022-11-20T09:39:52;97257.72;;;19.62;60.69
65227;BME280;51805;49.012;12.104;2022-11-20T09:44:53;97266.34;;;19.64;60.59
65227;BME280;51805;49.012;12.104;2022-11-20T09:55:03;97268.25;;;19.64;60.55
65227;BME280;51805;49.012;12.104;2022-11-20T09:57:38;97278.19;;;19.63;60.65
65227;BME280;51805;49.012;12.104;2022-11-20T10:00:08;97262.59;;;19.60;60.66
65227;BME280;51805;49.012;12.104;2022-11-20T10:02:39;97272.81;;;19.63;60.62
65227;BME280;51805;49.012;12.104;2022-11-20T10:05:28;97263.94;;;19.63;60.74
65227;BME280;51805;49.012;12.104;2022-11-20T10:11:01;97258.56;;;19.63;60.59
65227;BME280;51805;49.012;12.104;2022-11-20T10:16:40;97251.25;;;19.63;60.71
65227;BME280;51805;49.012;12.104;2022-11-20T10:22:17;97245.84;;;19.63;60.70
65227;BME280;51805;49.012;12.104;2022-11-20T10:30:15;97242.88;;;19.65;60.66
65227;BME280;51805;49.012;12.104;2022-11-20T10:32:43;97235.06;;;19.63;60.65
65227;BME280;51805;49.012;12.104;2022-11-20T10:35:16;97249.09;;;19.65;60.73
65227;BME280;51805;49.012;12.104;2022-11-20T10:37:50;97238.31;;;19.65;60.70
65227;BME280;51805;49.012;12.104;2022-11-20T10:47:54;97239.91;;;19.66;60.61
65227;BME280;51805;49.012;12.104;2022-11-20T10:50:22;97237.50;;;19.65;60.68
65227;BME280;51805;49.012;12.104;2022-11-20T10:53:02;97232.09;;;19.65;60.76
65227;BME280;51805;49.012;12.104;2022-11-20T10:55:55;97233.75;;;19.66;60.72
65227;BME280;51805;49.012;12.104;2022-11-20T10:58:40;97222.69;;;19.62;60.57
65227;BME280;51805;49.012;12.104;2022-11-20T11:01:18;97229.13;;;19.66;60.70
65227;BME280;51805;49.012;12.104;2022-11-20T11:03:44;97220.53;;;19.64;60.67
65227;BME280;51805;49.012;12.104;2022-11-20T11:06:32;97222.94;;;19.66;60.58
65227;BME280;51805;49.012;12.104;2022-11-20T11:09:08;97228.06;;;19.67;60.61
65227;BME280;51805;49.012;12.104;2022-11-20T11:11:38;97226.97;;;19.68;60.67
65227;BME280;51805;49.012;12.104;2022-11-20T11:14:07;97221.59;;;19.68;60.63
65227;BME280;51805;49.012;12.104;2022-11-20T11:16:33;97223.47;;;19.68;60.71
65227;BME280;51805;49.012;12.104;2022-11-20T11:19:12;97225.38;;;19.67;60.63
65227;BME280;51805;49.012;12.104;2022-11-20T11:21:37;97221.59;;;19.68;60.58
65227;BME280;51805;49.012;12.104;2022-11-20T11:24:03;97214.88;;;19.66;60.63
65227;BME280;51805;49.012;12.104;2022-11-20T11:26:29;97211.06;;;19.67;60.68
65227;BME280;51805;49.012;12.104;2022-11-20T11:31:28;97216.19;;;19.68;60.60
65227;BME280;51805;49.012;12.104;2022-11-20T11:34:06;97206.22;;;19.69;60.59
65227;BME280;51805;49.012;12.104;2022-11-20T11:36:33;97208.66;;;19.65;60.80
65227;BME280;51805;49.012;12.104;2022-11-20T11:38:59;97205.41;;;19.68;60.52
65227;BME280;51805;49.012;12.104;2022-11-20T11:41:28;97203.53;;;19.69;60.62
65227;BME280;51805;49.012;12.104;2022-11-20T11:44:00;97200.84;;;19.64;60.71
65227;BME280;51805;49.012;12.104;2022-11-20T11:46:33;97206.50;;;19.67;60.73
65227;BME280;51805;49.012;12.104;2022-11-20T11:49:00;97199.19;;;19.68;60.63
65227;BME280;51805;49.012;12.104;2022-11-20T11:51:39;97198.13;;;19.69;60.60
65227;BME280;51805;49.012;12.104;2022-11-20T11:54:16;97195.44;;;19.69;60.67
65227;BME280;51805;49.012;12.104;2022-11-20T11:56:44;97191.94;;;19.68;60.59
65227;BME280;51805;49.012;12.104;2022-11-20T11:59:15;97196.22;;;19.69;60.61
65227;BME280;51805;49.012;12.104;2022-11-20T12:01:47;97190.06;;;19.69;60.66
65227;BME280;51805;49.012;12.104;2022-11-20T12:04:39;97184.66;;;19.69;60.70
65227;BME280;51805;49.012;12.104;2022-11-20T12:07:12;97185.44;;;19.69;60.63
65227;BME280;51805;49.012;12.104;2022-11-20T12:09:45;97185.44;;;19.69;60.61
65227;BME280;51805;49.012;12.104;2022-11-20T12:12:32;97188.13;;;19.69;60.66
65227;BME280;51805;49.012;12.104;2022-11-20T12:15:02;97192.47;;;19.70;60.71
65227;BME280;51805;49.012;12.104;2022-11-20T12:17:29;97188.69;;;19.71;60.62
65227;BME280;51805;49.012;12.104;2022-11-20T12:19:54;97183.56;;;19.70;60.67
65227;BME280;51805;49.012;12.104;2022-11-20T12:25:30;97174.38;;;19.71;60.66
65227;BME280;51805;49.012;12.104;2022-11-20T12:30:30;97176.81;;;19.72;60.53
65227;BME280;51805;49.012;12.104;2022-11-20T12:33:17;97177.63;;;19.73;60.65
65227;BME280;51805;49.012;12.104;2022-11-20T12:38:39;97172.22;;;19.73;60.61
65227;BME280;51805;49.012;12.104;2022-11-20T12:41:46;97175.72;;;19.73;60.56
65227;BME280;51805;49.012;12.104;2022-11-20T12:44:48;97162.28;;;19.68;60.51
65227;BME280;51805;49.012;12.104;2022-11-20T12:53:07;97167.94;;;19.72;60.72
65227;BME280;51805;49.012;12.104;2022-11-20T12:55:56;97172.50;;;19.71;60.74
65227;BME280;51805;49.012;12.104;2022-11-20T13:01:29;97163.34;;;19.72;60.68
65227;BME280;51805;49.012;12.104;2022-11-20T13:03:57;97163.84;;;19.74;60.67
65227;BME280;51805;49.012;12.104;2022-11-20T13:06:25;97165.75;;;19.74;60.52
65227;BME280;51805;49.012;12.104;2022-11-20T13:08:54;97167.09;;;19.71;60.62
65227;BME280;51805;49.012;12.104;2022-11-20T13:11:27;97163.84;;;19.74;60.59
65227;BME280;51805;49.012;12.104;2022-11-20T13:14:07;97167.66;;;19.73;60.53
65227;BME280;51805;49.012;12.104;2022-11-20T13:19:53;97164.94;;;19.73;60.65
65227;BME280;51805;49.012;12.104;2022-11-20T13:22:42;97162.78;;;19.75;60.50
65227;BME280;51805;49.012;12.104;2022-11-20T13:27:49;97157.41;;;19.75;60.58
65227;BME280;51805;49.012;12.104;2022-11-20T13:30:17;97158.19;;;19.76;60.52
65227;BME280;51805;49.012;12.104;2022-11-20T13:35:30;97162.78;;;19.75;60.48
65227;BME280;51805;49.012;12.104;2022-11-20T13:40:28;97154.69;;;19.75;60.63
65227;BME280;51805;49.012;12.104;2022-11-20T13:45:28;97147.44;;;19.71;60.32
65227;BME280;51805;49.012;12.104;2022-11-20T13:47:55;97143.94;;;19.70;60.70
65227;BME280;51805;49.012;12.104;2022-11-20T13:50:31;97156.31;;;19.76;60.53
65227;BME280;51805;49.012;12.104;2022-11-20T13:55:54;97142.56;;;19.73;60.61
65227;BME280;51805;49.012;12.104;2022-11-20T13:58:44;97143.38;;;19.73;60.65
65227;BME280;51805;49.012;12.104;2022-11-20T14:01:19;97147.97;;;19.73;60.68
65227;BME280;51805;49.012;12.104;2022-11-20T14:03:45;97147.97;;;19.73;60.53
65227;BME280;51805;49.012;12.104;2022-11-20T14:06:16;97148.78;;;19.73;60.70
65227;BME280;51805;49.012;12.104;2022-11-20T14:08:47;97147.19;;;19.72;60.71
65227;BME280;51805;49.012;12.104;2022-11-20T14:11:17;97157.13;;;19.72;60.68
65227;BME280;51805;49.012;12.104;2022-11-20T14:14:18;97155.50;;;19.71;60.62
65227;BME280;51805;49.012;12.104;2022-11-20T14:16:43;97153.63;;;19.71;60.58
65227;BME280;51805;49.012;12.104;2022-11-20T14:21:48;97157.41;;;19.70;60.75